Time;durP1;ratioP1;P1;durP2;ratioP2;P2;SDS_P1;SDS_P2;PMS_P1;PMS_P2;Temp;Humidity;BMP_temperature;BMP_pressure;BME280_temperature;BME280_humidity;BME280_pressure;Samples;Min_cycle;Max_cycle;Signal;HPM_P1;HPM_P2
2023/08/06 00:00:10;;;;;;;32.00;16.50;;;;;;;19.37;95.21;98960.09;103379;1254;138686;-77
2023/08/06 00:02:57;;;;;;;27.30;16.70;;;;;;;19.38;95.39;98946.07;103494;1253;96362;-77
2023/08/06 00:05:24;;;;;;;27.80;16.10;;;;;;;19.39;95.47;98944.39;103508;1250;110670;-77
2023/08/06 00:07:51;;;;;;;26.30;17.00;;;;;;;19.40;95.49;98939.41;103378;1255;138491;-77
2023/08/06 00:10:19;;;;;;;26.40;16.00;;;;;;;19.41;95.43;98940.36;103398;1256;96308;-77
2023/08/06 00:12:46;;;;;;;34.40;17.60;;;;;;;19.41;95.42;98952.36;103376;1254;138267;-77
2023/08/06 00:15:14;;;;;;;41.50;19.10;;;;;;;19.40;95.35;98971.31;103374;1255;96451;-77
2023/08/06 00:17:41;;;;;;;36.90;18.70;;;;;;;19.38;95.42;98974.79;103551;1255;110301;-78
2023/08/06 00:20:10;;;;;;;34.60;18.00;;;;;;;19.35;95.47;98975.42;103394;1250;138273;-77
2023/08/06 00:22:38;;;;;;;31.60;18.10;;;;;;;19.31;95.48;98975.04;103480;1254;96543;-77
2023/08/06 00:25:07;;;;;;;31.10;17.50;;;;;;;19.26;95.64;98972.97;103411;1254;138381;-77
2023/08/06 00:27:37;;;;;;;30.90;18.10;;;;;;;19.22;95.87;98968.98;103474;1256;96433;-77
2023/08/06 00:30:05;;;;;;;32.80;18.50;;;;;;;19.17;95.89;98966.75;103371;1251;138610;-77
2023/08/06 00:32:33;;;;;;;24.70;17.40;;;;;;;19.12;96.34;98956.27;103522;1250;107887;-76
2023/08/06 00:35:00;;;;;;;29.60;17.00;;;;;;;19.09;96.42;98945.85;103457;1256;95640;-77
2023/08/06 00:37:27;;;;;;;21.00;15.60;;;;;;;19.06;96.64;98927.63;103390;1251;138526;-77
2023/08/06 00:39:54;;;;;;;19.50;15.30;;;;;;;19.05;96.64;98927.71;103425;1256;96436;-77
2023/08/06 00:42:22;;;;;;;20.00;14.80;;;;;;;19.04;96.85;98926.70;103426;1253;138476;-76
2023/08/06 00:44:50;;;;;;;18.10;14.20;;;;;;;19.02;96.97;98926.13;103496;1253;106926;-76
2023/08/06 00:47:18;;;;;;;18.80;14.90;;;;;;;19.02;97.23;98920.52;103550;1256;96457;-76
2023/08/06 00:49:45;;;;;;;18.40;13.50;;;;;;;19.01;97.23;98915.19;103339;1256;138286;-76
2023/08/06 00:52:15;;;;;;;15.90;13.10;;;;;;;18.99;97.32;98902.45;103416;1251;96316;-76
2023/08/06 00:54:42;;;;;;;16.90;13.90;;;;;;;18.99;97.47;98895.08;103322;1256;138466;-77
2023/08/06 01:00:43;;;;;;;14.40;12.30;;;;;;;19.01;97.87;98866.65;103334;1251;138704;-76
2023/08/06 01:03:10;;;;;;;13.90;12.40;;;;;;;19.03;97.72;98860.89;103489;1256;107964;-76
2023/08/06 01:05:38;;;;;;;15.00;12.60;;;;;;;19.05;97.82;98850.02;103536;1256;96434;-76
2023/08/06 01:08:20;;;;;;;15.50;12.60;;;;;;;19.06;97.70;98845.98;103468;1250;138083;-76
2023/08/06 01:10:58;;;;;;;17.40;13.70;;;;;;;19.08;97.69;98834.41;103379;1256;105543;-76
2023/08/06 01:13:33;;;;;;;15.30;13.20;;;;;;;19.09;97.61;98832.36;103279;1256;138853;-75
2023/08/06 01:16:02;;;;;;;15.30;13.30;;;;;;;19.09;97.72;98819.13;103491;1256;107420;-76
2023/08/06 01:18:30;;;;;;;14.80;12.70;;;;;;;19.10;97.57;98810.43;103339;1250;138607;-76
2023/08/06 01:21:00;;;;;;;15.90;13.70;;;;;;;19.08;97.23;98803.90;103465;1254;110155;-75
2023/08/06 01:23:28;;;;;;;19.10;15.10;;;;;;;19.05;97.49;98793.64;103485;1256;107608;-76
2023/08/06 01:26:03;;;;;;;19.50;14.70;;;;;;;19.01;97.42;98781.27;103334;1250;138493;-76
2023/08/06 01:28:42;;;;;;;22.30;15.90;;;;;;;18.98;97.84;98761.69;103511;1254;107642;-76
2023/08/06 01:31:11;;;;;;;19.90;15.20;;;;;;;18.93;98.05;98749.46;103265;1250;138416;-77
2023/08/06 01:33:44;;;;;;;18.50;13.80;;;;;;;18.89;98.19;98739.23;103525;1250;108868;-76
2023/08/06 01:36:12;;;;;;;18.70;13.80;;;;;;;18.85;98.27;98731.83;103235;1256;139474;-76
2023/08/06 01:38:39;;;;;;;16.30;12.90;;;;;;;18.82;98.54;98727.16;103535;1256;96439;-77
2023/08/06 01:41:06;;;;;;;18.20;13.30;;;;;;;18.80;98.67;98717.13;103490;1256;108970;-77
2023/08/06 01:43:33;;;;;;;14.80;12.70;;;;;;;18.80;98.89;98710.85;103351;1256;138989;-77
2023/08/06 01:46:01;;;;;;;15.30;12.90;;;;;;;18.81;99.26;98701.56;103549;1256;110377;-77
2023/08/06 01:48:28;;;;;;;18.30;13.20;;;;;;;18.83;99.47;98696.83;103339;1256;138847;-76
2023/08/06 01:50:55;;;;;;;15.40;12.20;;;;;;;18.81;99.21;98690.77;103414;1251;97775;-77
2023/08/06 01:53:25;;;;;;;14.80;11.60;;;;;;;18.81;99.33;98678.30;103456;1251;107703;-76
2023/08/06 01:55:52;;;;;;;14.60;12.10;;;;;;;18.82;99.37;98679.48;103337;1254;138615;-75
2023/08/06 01:58:19;;;;;;;13.60;12.00;;;;;;;18.83;99.53;98678.16;103435;1251;111370;-75
2023/08/06 02:04:16;;;;;;;15.60;12.10;;;;;;;18.83;99.59;98680.95;102858;1259;98296;-75
2023/08/06 02:06:44;;;;;;;14.30;11.70;;;;;;;18.84;99.62;98681.57;102916;1259;138552;-76
2023/08/06 02:09:11;;;;;;;12.00;10.40;;;;;;;18.84;99.71;98675.03;102895;1258;97795;-75
2023/08/06 02:11:38;;;;;;;13.10;11.60;;;;;;;18.86;99.98;98675.09;102881;1264;112275;-77
2023/08/06 02:14:05;;;;;;;16.20;11.40;;;;;;;18.88;99.93;98676.14;102859;1259;139245;-77
2023/08/06 02:16:32;;;;;;;12.80;11.30;;;;;;;18.87;99.90;98672.97;102889;1263;97854;-76
2023/08/06 02:18:59;;;;;;;15.90;12.20;;;;;;;18.88;99.86;98663.13;102847;1259;138708;-77
2023/08/06 02:21:26;;;;;;;14.70;11.80;;;;;;;18.88;99.91;98654.84;102926;1259;97820;-77
2023/08/06 02:23:54;;;;;;;12.40;11.10;;;;;;;18.90;100.00;98650.77;102784;1259;138806;-77
2023/08/06 02:26:20;;;;;;;13.30;11.50;;;;;;;18.89;99.95;98649.92;102913;1259;107616;-76
2023/08/06 02:28:48;;;;;;;12.40;11.10;;;;;;;18.89;99.99;98648.89;102733;1259;97882;-76
2023/08/06 02:31:14;;;;;;;14.10;11.30;;;;;;;18.91;99.99;98644.87;102714;1259;139526;-76
2023/08/06 02:33:41;;;;;;;15.30;11.90;;;;;;;18.93;100.00;98650.29;102915;1259;96535;-76
2023/08/06 02:36:09;;;;;;;13.20;10.70;;;;;;;18.94;100.00;98653.88;102667;1259;139119;-77
2023/08/06 02:38:36;;;;;;;14.00;11.40;;;;;;;18.95;100.00;98661.19;102908;1259;107617;-77
2023/08/06 02:41:06;;;;;;;14.40;11.30;;;;;;;18.95;100.00;98658.91;102865;1259;97837;-77
2023/08/06 02:43:33;;;;;;;14.70;11.00;;;;;;;18.94;100.00;98655.99;102834;1259;139198;-78
2023/08/06 02:46:03;;;;;;;14.00;11.50;;;;;;;18.95;100.00;98648.31;102790;1263;98243;-78
2023/08/06 02:48:30;;;;;;;13.10;10.80;;;;;;;18.97;100.00;98646.36;102782;1259;139515;-77
2023/08/06 02:51:01;;;;;;;15.20;12.10;;;;;;;18.99;100.00;98636.48;102997;1259;108507;-76
2023/08/06 02:53:29;;;;;;;13.80;11.00;;;;;;;19.01;100.00;98637.39;102900;1259;98252;-76
2023/08/06 02:55:58;;;;;;;12.60;10.50;;;;;;;19.01;100.00;98637.83;102834;1259;138661;-77
2023/08/06 02:58:30;;;;;;;13.40;11.90;;;;;;;19.03;100.00;98632.96;102758;1259;98472;-77
2023/08/06 03:01:14;;;;;;;13.80;11.90;;;;;;;19.04;100.00;98628.52;102657;1259;138337;-77
2023/08/06 03:03:49;;;;;;;15.30;12.00;;;;;;;19.05;100.00;98616.21;102853;1259;107216;-78
2023/08/06 03:06:21;;;;;;;15.20;11.00;;;;;;;19.06;100.00;98608.92;102753;1263;139066;-76
2023/08/06 03:08:50;;;;;;;15.50;11.40;;;;;;;19.08;100.00;98599.27;102864;1259;107979;-76
2023/08/06 03:11:18;;;;;;;14.70;12.00;;;;;;;19.08;100.00;98593.73;102744;1259;97923;-77
2023/08/06 03:13:45;;;;;;;18.40;11.90;;;;;;;19.08;100.00;98593.73;102759;1259;138853;-77
2023/08/06 03:16:12;;;;;;;13.80;11.50;;;;;;;19.08;100.00;98590.92;102774;1264;106495;-77
2023/08/06 03:18:40;;;;;;;14.90;11.90;;;;;;;19.07;100.00;98587.14;102750;1259;139172;-77
2023/08/06 03:21:07;;;;;;;16.00;12.40;;;;;;;19.08;100.00;98583.36;102857;1259;107270;-77
2023/08/06 03:23:35;;;;;;;18.80;14.50;;;;;;;19.09;100.00;98578.35;102834;1259;97908;-78
2023/08/06 03:26:05;;;;;;;16.50;12.90;;;;;;;19.09;100.00;98570.02;102784;1261;138625;-78
2023/08/06 03:28:32;;;;;;;16.50;13.30;;;;;;;19.11;100.00;98565.15;102903;1259;107725;-78
2023/08/06 03:31:03;;;;;;;18.00;14.20;;;;;;;19.11;100.00;98564.20;102734;1259;139461;-77
2023/08/06 03:33:37;;;;;;;18.60;15.00;;;;;;;19.12;100.00;98553.52;102791;1259;108004;-78
2023/08/06 03:36:07;;;;;;;15.60;13.70;;;;;;;19.13;100.00;98548.16;102731;1259;139255;-77
2023/08/06 03:38:34;;;;;;;18.80;14.90;;;;;;;19.14;100.00;98547.02;102842;1258;112496;-78
2023/08/06 03:41:03;;;;;;;21.60;14.40;;;;;;;19.16;100.00;98534.64;102833;1259;106887;-78
2023/08/06 03:43:30;;;;;;;15.10;13.30;;;;;;;19.19;100.00;98527.86;102729;1259;139966;-78
2023/08/06 03:45:58;;;;;;;19.90;14.50;;;;;;;19.21;100.00;98516.40;102873;1259;109351;-77
2023/08/06 03:48:25;;;;;;;19.40;14.60;;;;;;;19.21;100.00;98508.61;102751;1259;139656;-77
2023/08/06 03:50:52;;;;;;;21.80;15.70;;;;;;;19.22;100.00;98504.80;102875;1262;110821;-78
2023/08/06 03:53:19;;;;;;;17.70;14.90;;;;;;;19.24;100.00;98500.96;102835;1263;105907;-76
2023/08/06 03:55:47;;;;;;;22.70;15.70;;;;;;;19.26;100.00;98498.27;102810;1262;139021;-76
2023/08/06 03:58:14;;;;;;;20.30;16.40;;;;;;;19.28;100.00;98494.61;102864;1259;109051;-76
2023/08/06 04:00:41;;;;;;;19.90;15.90;;;;;;;19.29;100.00;98489.74;102741;1259;139843;-76
2023/08/06 04:03:09;;;;;;;19.90;15.80;;;;;;;19.30;100.00;98484.46;102771;1259;110683;-76
2023/08/06 04:05:36;;;;;;;22.90;17.10;;;;;;;19.33;100.00;98477.48;102657;1262;107658;-75
2023/08/06 04:08:03;;;;;;;25.60;18.40;;;;;;;19.36;100.00;98468.08;102722;1261;138886;-76
2023/08/06 04:10:30;;;;;;;29.00;18.50;;;;;;;19.37;100.00;98463.38;102704;1265;108661;-76
2023/08/06 04:12:57;;;;;;;21.60;17.50;;;;;;;19.38;100.00;98459.27;102745;1262;140021;-76
2023/08/06 04:15:25;;;;;;;22.60;17.70;;;;;;;19.40;100.00;98451.90;102852;1264;112249;-75
2023/08/06 04:17:52;;;;;;;29.40;18.20;;;;;;;19.42;100.00;98450.14;102770;1264;139025;-77
2023/08/06 04:20:19;;;;;;;23.10;18.40;;;;;;;19.43;100.00;98444.67;102917;1262;97799;-75
2023/08/06 04:22:46;;;;;;;24.80;17.80;;;;;;;19.44;100.00;98439.79;102736;1262;107330;-75
2023/08/06 04:25:13;;;;;;;25.20;18.60;;;;;;;19.47;100.00;98441.30;102642;1261;138944;-74
2023/08/06 04:27:41;;;;;;;25.70;20.00;;;;;;;19.48;100.00;98441.77;102696;1262;111681;-76
2023/08/06 04:30:12;;;;;;;24.00;18.80;;;;;;;19.49;100.00;98440.41;102733;1264;140134;-75
2023/08/06 04:32:40;;;;;;;26.30;19.00;;;;;;;19.50;100.00;98438.69;102883;1262;98287;-75
2023/08/06 04:35:09;;;;;;;28.90;20.70;;;;;;;19.52;100.00;98432.63;102775;1262;107417;-75
2023/08/06 04:37:36;;;;;;;25.50;19.50;;;;;;;19.54;100.00;98431.66;102667;1262;138825;-76
2023/08/06 04:40:04;;;;;;;24.50;18.80;;;;;;;19.54;100.00;98429.33;102826;1259;111205;-75
2023/08/06 04:42:31;;;;;;;27.30;20.20;;;;;;;19.57;100.00;98429.94;102663;1264;138968;-76
2023/08/06 04:44:58;;;;;;;24.00;20.00;;;;;;;19.60;100.00;98424.52;102739;1262;97833;-76
2023/08/06 04:47:26;;;;;;;24.10;21.00;;;;;;;19.64;100.00;98417.90;102737;1264;106006;-76
2023/08/06 04:49:54;;;;;;;28.00;20.10;;;;;;;19.70;100.00;98414.85;102743;1259;139109;-77
2023/08/06 04:52:20;;;;;;;24.10;20.20;;;;;;;19.76;100.00;98411.89;102859;1261;111389;-77
2023/08/06 04:54:47;;;;;;;23.70;19.60;;;;;;;19.81;100.00;98405.52;102715;1264;139887;-77
2023/08/06 04:57:14;;;;;;;23.80;19.30;;;;;;;19.89;100.00;98403.41;102855;1262;97709;-77
2023/08/06 04:59:42;;;;;;;23.90;19.80;;;;;;;19.98;100.00;98397.52;102800;1264;108707;-77
2023/08/06 05:02:09;;;;;;;23.00;18.80;;;;;;;20.06;100.00;98396.48;102666;1263;140665;-77
2023/08/06 05:04:36;;;;;;;26.30;19.30;;;;;;;20.20;100.00;98394.11;102905;1264;111728;-77
2023/08/06 05:07:03;;;;;;;22.50;18.40;;;;;;;20.36;100.00;98390.92;102773;1261;138888;-78
2023/08/06 05:09:30;;;;;;;21.60;17.20;;;;;;;20.58;100.00;98386.83;102830;1261;96221;-78
2023/08/06 05:12:03;;;;;;;21.30;16.30;;;;;;;20.78;99.29;98384.88;102737;1262;139387;-78
2023/08/06 05:14:30;;;;;;;22.10;16.20;;;;;;;21.10;98.70;98378.92;102753;1264;97957;-78
2023/08/06 05:16:57;;;;;;;18.80;15.20;;;;;;;21.43;97.75;98371.47;102871;1264;110841;-78
2023/08/06 05:19:24;;;;;;;20.40;15.50;;;;;;;21.87;96.27;98368.55;102767;1261;140298;-78
2023/08/06 05:21:51;;;;;;;17.70;14.40;;;;;;;22.58;94.99;98365.66;102921;1261;97681;-78
2023/08/06 05:24:18;;;;;;;18.70;13.60;;;;;;;23.52;92.75;98362.42;102724;1262;142912;-79
2023/08/06 05:26:49;;;;;;;16.20;13.30;;;;;;;24.43;88.73;98365.75;102797;1262;97700;-78
2023/08/06 05:29:17;;;;;;;13.90;12.30;;;;;;;25.31;85.51;98361.98;102837;1262;111303;-78
2023/08/06 05:31:44;;;;;;;15.40;12.30;;;;;;;25.78;82.25;98360.48;102696;1262;138728;-79
2023/08/06 05:34:11;;;;;;;14.10;12.00;;;;;;;26.58;80.72;98352.30;102842;1264;97801;-79
2023/08/06 05:36:38;;;;;;;15.30;11.50;;;;;;;27.46;77.51;98347.48;102736;1259;139331;-78
2023/08/06 05:39:05;;;;;;;17.40;11.90;;;;;;;28.00;73.04;98341.11;102801;1262;97898;-78
2023/08/06 05:41:32;;;;;;;15.60;11.40;;;;;;;28.46;69.92;98336.00;102921;1262;111220;-78
2023/08/06 05:44:00;;;;;;;15.90;11.40;;;;;;;29.27;69.12;98332.25;102725;1262;138002;-79
2023/08/06 05:46:30;;;;;;;15.40;10.50;;;;;;;30.20;64.71;98328.71;102879;1262;97791;-80
2023/08/06 05:48:57;;;;;;;13.50;10.00;;;;;;;31.09;64.63;98324.88;102818;1261;137933;-79
2023/08/06 05:51:24;;;;;;;14.30;9.80;;;;;;;31.94;61.98;98315.50;102855;1262;96372;-79
2023/08/06 05:53:51;;;;;;;15.10;9.10;;;;;;;32.81;59.33;98312.35;102743;1262;141208;-80
2023/08/06 05:56:18;;;;;;;9.80;8.80;;;;;;;33.48;56.74;98308.86;102806;1262;99961;-80
2023/08/06 05:58:46;;;;;;;11.00;8.50;;;;;;;34.16;55.04;98302.53;102876;1262;97872;-80
2023/08/06 06:01:13;;;;;;;13.90;8.90;;;;;;;34.76;52.60;98300.00;102726;1260;137925;-80
2023/08/06 06:03:40;;;;;;;9.30;8.40;;;;;;;35.15;51.10;98296.39;102814;1261;97948;-80
2023/08/06 06:06:07;;;;;;;11.60;8.30;;;;;;;35.53;49.17;98295.54;102763;1262;137734;-80
2023/08/06 06:08:34;;;;;;;8.30;7.50;;;;;;;35.76;48.09;98294.22;102822;1260;100354;-80
2023/08/06 06:11:01;;;;;;;13.40;8.30;;;;;;;36.09;45.89;98290.85;102869;1261;97762;-79
2023/08/06 06:13:29;;;;;;;15.90;7.60;;;;;;;36.02;43.97;98293.67;102817;1263;137708;-80
2023/08/06 06:15:58;;;;;;;9.30;6.80;;;;;;;35.75;43.91;98294.42;102710;1261;96765;-80
2023/08/06 06:18:25;;;;;;;11.40;7.30;;;;;;;35.83;43.60;98287.33;102673;1262;139014;-81
2023/08/06 06:20:54;;;;;;;11.00;7.00;;;;;;;35.80;42.17;98284.98;102736;1260;98552;-81
2023/08/06 06:23:21;;;;;;;10.90;7.10;;;;;;;35.67;40.85;98287.37;102820;1261;97877;-80
2023/08/06 06:25:51;;;;;;;11.80;7.10;;;;;;;35.41;41.64;98285.77;102771;1264;137627;-80
2023/08/06 06:28:18;;;;;;;13.50;7.20;;;;;;;35.02;42.11;98281.69;102874;1262;97849;-80
2023/08/06 06:30:45;;;;;;;15.30;7.10;;;;;;;34.54;42.60;98272.70;102835;1259;137571;-80
2023/08/06 06:33:12;;;;;;;8.90;7.00;;;;;;;34.04;43.26;98263.55;102815;1261;99104;-80
2023/08/06 06:35:40;;;;;;;9.90;7.30;;;;;;;33.78;42.78;98262.60;102822;1261;97821;-80
2023/08/06 06:38:06;;;;;;;8.60;7.00;;;;;;;33.62;43.12;98267.60;102717;1261;138319;-80
2023/08/06 06:40:33;;;;;;;11.10;7.20;;;;;;;33.19;43.90;98267.40;102836;1262;97834;-79
2023/08/06 06:43:01;;;;;;;10.30;7.20;;;;;;;32.89;44.43;98266.99;102785;1263;137872;-79
2023/08/06 06:45:28;;;;;;;12.20;7.10;;;;;;;33.05;45.23;98266.54;102836;1264;98995;-79
2023/08/06 06:47:54;;;;;;;11.10;7.50;;;;;;;34.12;44.90;98260.67;102745;1260;138349;-78
2023/08/06 06:50:22;;;;;;;11.60;7.00;;;;;;;34.73;42.09;98262.02;102852;1262;98767;-79
2023/08/06 06:52:49;;;;;;;10.10;7.00;;;;;;;34.29;41.69;98259.36;102853;1261;97804;-79
2023/08/06 06:55:16;;;;;;;11.00;6.70;;;;;;;34.03;42.46;98251.70;102746;1262;137743;-80
2023/08/06 06:57:43;;;;;;;7.70;6.30;;;;;;;34.53;42.42;98251.36;102857;1261;99060;-79
2023/08/06 07:00:12;;;;;;;13.80;6.10;;;;;;;35.31;41.10;98244.76;102740;1264;137662;-78
2023/08/06 07:02:39;;;;;;;8.60;6.40;;;;;;;35.96;39.77;98243.33;103012;1259;99385;-78
2023/08/06 07:05:07;;;;;;;11.00;6.40;;;;;;;36.32;38.72;98243.49;102923;1264;97811;-78
2023/08/06 07:07:35;;;;;;;15.00;6.70;;;;;;;36.38;37.36;98249.06;102821;1259;137765;-78
2023/08/06 07:10:02;;;;;;;12.70;6.50;;;;;;;36.45;37.97;98247.36;102834;1262;100068;-80
2023/08/06 07:12:29;;;;;;;10.60;6.50;;;;;;;36.86;37.82;98250.05;102784;1260;137994;-78
2023/08/06 07:14:56;;;;;;;10.80;6.90;;;;;;;37.10;35.89;98255.14;102843;1261;98827;-79
2023/08/06 07:17:23;;;;;;;8.80;6.20;;;;;;;36.93;35.44;98253.09;102851;1261;97690;-79
2023/08/06 07:19:50;;;;;;;9.60;6.50;;;;;;;36.88;35.62;98257.27;102777;1261;138186;-79
2023/08/06 07:22:17;;;;;;;9.70;6.40;;;;;;;36.81;35.48;98258.32;102827;1261;99111;-80
2023/08/06 07:24:45;;;;;;;13.20;6.70;;;;;;;36.23;35.95;98255.02;102848;1262;137464;-80
2023/08/06 07:27:12;;;;;;;13.10;6.70;;;;;;;35.13;36.82;98257.83;102810;1261;98805;-80
2023/08/06 07:29:39;;;;;;;9.50;6.60;;;;;;;34.71;38.44;98258.95;102806;1264;97911;-74
2023/08/06 07:32:10;;;;;;;13.00;6.90;;;;;;;34.64;39.18;98256.27;102799;1263;138144;-75
2023/08/06 07:34:37;;;;;;;9.00;6.50;;;;;;;34.49;38.65;98251.76;102834;1263;100112;-75
2023/08/06 07:37:04;;;;;;;11.00;7.00;;;;;;;34.12;39.17;98251.66;102720;1274;137944;-74
2023/08/06 07:39:32;;;;;;;11.80;6.90;;;;;;;34.32;39.31;98252.33;103351;1264;99648;-77
2023/08/06 07:42:07;;;;;;;13.50;6.50;;;;;;;34.67;38.26;98257.34;102597;1264;137771;-72
2023/08/06 07:44:34;;;;;;;13.70;6.80;;;;;;;34.55;38.35;98249.07;102805;1261;103808;-70
2023/08/06 07:47:01;;;;;;;11.80;6.40;;;;;;;34.16;39.06;98250.98;102752;1263;99351;-68
2023/08/06 07:49:29;;;;;;;14.10;7.30;;;;;;;34.00;39.48;98241.93;102764;1260;137798;-70
2023/08/06 07:51:59;;;;;;;13.20;7.20;;;;;;;33.89;40.00;98241.38;102786;1261;99293;-70
2023/08/06 07:54:26;;;;;;;12.40;7.30;;;;;;;33.54;40.19;98243.90;102743;1264;137794;-73
2023/08/06 07:56:53;;;;;;;14.20;7.20;;;;;;;32.89;40.84;98249.02;102783;1260;102759;-66
2023/08/06 07:59:20;;;;;;;18.00;7.30;;;;;;;32.35;41.85;98245.20;102818;1262;99094;-66
2023/08/06 08:01:47;;;;;;;15.40;7.40;;;;;;;32.20;42.90;98241.73;102645;1264;137657;-65
2023/08/06 08:04:14;;;;;;;12.30;7.20;;;;;;;32.07;42.75;98237.79;102729;1261;108811;-65
2023/08/06 08:06:42;;;;;;;12.40;7.70;;;;;;;31.66;43.22;98237.30;102617;1263;137939;-65
2023/08/06 08:09:09;;;;;;;10.20;7.40;;;;;;;31.22;44.09;98243.92;102741;1262;111646;-65
2023/08/06 08:11:36;;;;;;;10.20;7.20;;;;;;;31.08;44.63;98237.36;102638;1260;109078;-64
2023/08/06 08:14:03;;;;;;;12.40;7.90;;;;;;;31.64;44.50;98229.34;102570;1262;137695;-65
2023/08/06 08:16:30;;;;;;;16.70;7.40;;;;;;;32.17;43.85;98228.18;102750;1261;100151;-65
2023/08/06 08:18:58;;;;;;;15.70;8.20;;;;;;;32.67;43.31;98228.31;102668;1263;137812;-66
2023/08/06 08:21:26;;;;;;;13.10;7.40;;;;;;;32.96;42.63;98223.66;102863;1261;104006;-67
2023/08/06 08:23:53;;;;;;;15.00;7.50;;;;;;;33.38;42.13;98227.33;102942;1264;137992;-68
2023/08/06 08:26:24;;;;;;;16.30;7.40;;;;;;;33.80;41.59;98213.50;102800;1264;97863;-67
2023/08/06 08:28:51;;;;;;;14.90;7.20;;;;;;;34.20;40.22;98229.86;102876;1261;99939;-65
2023/08/06 08:31:18;;;;;;;12.10;7.50;;;;;;;34.45;39.57;98219.54;102775;1261;138510;-65
2023/08/06 08:33:46;;;;;;;12.40;6.80;;;;;;;34.64;39.51;98221.29;103202;1262;103692;-65
2023/08/06 08:36:13;;;;;;;10.30;6.90;;;;;;;34.79;39.32;98209.33;102685;1260;316222;-64
2023/08/06 08:38:40;;;;;;;15.00;6.60;;;;;;;35.01;39.20;98203.88;102789;1264;97820;-64
2023/08/06 08:41:10;;;;;;;12.30;6.70;;;;;;;35.28;38.76;98200.64;102821;1264;100072;-64
2023/08/06 08:43:39;;;;;;;13.40;6.80;;;;;;;35.38;38.19;98201.52;102725;1261;137829;-65
2023/08/06 08:46:10;;;;;;;14.00;7.00;;;;;;;35.09;38.11;98202.80;103171;1264;103715;-65
2023/08/06 08:48:37;;;;;;;14.10;7.10;;;;;;;34.71;39.04;98204.90;102700;1264;137786;-65
2023/08/06 08:51:07;;;;;;;9.10;6.90;;;;;;;34.56;39.14;98210.14;102762;1261;97965;-67
2023/08/06 08:53:38;;;;;;;12.90;7.20;;;;;;;34.04;39.28;98203.35;104057;1263;100169;-68
2023/08/06 08:56:09;;;;;;;11.90;6.90;;;;;;;33.83;39.99;98202.13;102730;1261;137666;-70
2023/08/06 08:58:37;;;;;;;10.40;7.00;;;;;;;33.66;40.22;98199.56;102871;1260;103613;-69
2023/08/06 09:01:05;;;;;;;12.30;6.70;;;;;;;33.57;41.01;98195.04;102664;1262;137948;-69
2023/08/06 09:03:33;;;;;;;11.60;7.10;;;;;;;33.41;40.74;98194.61;102867;1264;97818;-70
2023/08/06 09:06:03;;;;;;;11.00;6.30;;;;;;;33.29;41.45;98185.83;102856;1259;137867;-69
2023/08/06 09:08:37;;;;;;;13.10;6.90;;;;;;;33.49;41.88;98179.66;102780;1264;97929;-70
2023/08/06 09:11:05;;;;;;;13.30;7.10;;;;;;;33.55;41.37;98179.31;103371;1264;102727;-70
2023/08/06 09:13:32;;;;;;;13.10;7.00;;;;;;;33.48;41.18;98179.70;102741;1262;137905;-67
2023/08/06 09:15:59;;;;;;;12.70;6.90;;;;;;;33.35;41.81;98174.09;102854;1261;97806;-68
2023/08/06 09:18:30;;;;;;;15.20;6.60;;;;;;;33.30;40.90;98171.94;102766;1261;139214;-68
2023/08/06 09:20:57;;;;;;;16.30;6.40;;;;;;;33.10;41.61;98168.64;102869;1259;97823;-68
2023/08/06 09:23:30;;;;;;;10.80;6.80;;;;;;;33.09;42.27;98161.39;103110;1264;105203;-70
2023/08/06 09:25:58;;;;;;;11.20;6.30;;;;;;;33.01;41.64;98157.08;102552;1261;137846;-70
2023/08/06 09:28:25;;;;;;;12.60;6.70;;;;;;;32.58;41.76;98155.76;103693;1260;95773;-70
2023/08/06 09:30:54;;;;;;;9.00;6.40;;;;;;;32.42;42.76;98152.05;102784;1262;137654;-68
2023/08/06 09:33:23;;;;;;;12.40;6.60;;;;;;;32.58;42.86;98151.12;102641;1264;97805;-69
2023/08/06 09:35:50;;;;;;;11.10;6.60;;;;;;;33.00;42.74;98149.71;102860;1260;103150;-69
2023/08/06 09:38:17;;;;;;;9.70;6.00;;;;;;;33.24;41.35;98151.37;102812;1260;100068;-70
2023/08/06 09:40:44;;;;;;;11.60;6.20;;;;;;;32.83;41.19;98149.48;102910;1263;97864;-69
2023/08/06 09:43:12;;;;;;;11.00;6.70;;;;;;;32.28;41.75;98152.89;102698;1262;137754;-70
2023/08/06 09:45:40;;;;;;;11.10;6.70;;;;;;;31.83;42.58;98156.52;102886;1262;97795;-69
2023/08/06 09:48:10;;;;;;;11.80;7.00;;;;;;;31.50;43.08;98161.55;102797;1263;137813;-70
2023/08/06 09:50:39;;;;;;;7.90;6.70;;;;;;;31.36;44.04;98153.00;102878;1263;108469;-69
2023/08/06 09:53:08;;;;;;;10.60;6.80;;;;;;;31.51;44.10;98154.23;102881;1261;97701;-69
2023/08/06 09:55:36;;;;;;;7.80;7.10;;;;;;;31.69;43.97;98156.65;102788;1261;137633;-69
2023/08/06 09:58:03;;;;;;;8.50;6.60;;;;;;;31.84;43.33;98162.11;102823;1265;97819;-67
2023/08/06 10:00:33;;;;;;;7.70;6.10;;;;;;;32.04;43.01;98153.59;102809;1263;137650;-69
2023/08/06 10:03:05;;;;;;;11.00;6.50;;;;;;;32.16;42.45;98144.61;102892;1263;100021;-69
2023/08/06 10:05:34;;;;;;;8.70;6.50;;;;;;;32.25;43.09;98124.24;102989;1263;97795;-69
2023/08/06 10:08:03;;;;;;;10.10;6.40;;;;;;;32.34;43.33;98120.50;103201;1263;137540;-68
2023/08/06 10:10:32;;;;;;;10.40;6.40;;;;;;;32.45;43.47;98113.36;102958;1265;97782;-69
2023/08/06 10:13:01;;;;;;;10.60;6.50;;;;;;;32.41;42.85;98110.17;102873;1265;137929;-68
2023/08/06 10:15:31;;;;;;;12.20;6.20;;;;;;;32.46;42.86;98107.06;102886;1264;100399;-69
2023/08/06 10:18:00;;;;;;;8.80;6.20;;;;;;;32.60;42.17;98116.49;102812;1263;137997;-70
2023/08/06 10:20:27;;;;;;;11.70;5.70;;;;;;;32.42;41.87;98118.33;102805;1260;99688;-68
2023/08/06 10:23:13;;;;;;;10.30;6.00;;;;;;;32.06;42.39;98118.75;102835;1260;97808;-69
2023/08/06 10:25:44;;;;;;;8.00;5.70;;;;;;;31.96;42.53;98118.21;102695;1266;137652;-70
2023/08/06 10:28:13;;;;;;;9.00;5.60;;;;;;;31.57;42.97;98105.14;102852;1263;99994;-69
2023/08/06 10:30:47;;;;;;;11.10;5.90;;;;;;;31.29;43.46;98102.65;102683;1277;137440;-68
2023/08/06 10:33:16;;;;;;;7.90;6.00;;;;;;;31.22;44.22;98100.63;103531;1261;108145;-68
2023/08/06 10:35:49;;;;;;;10.30;6.20;;;;;;;31.24;43.28;98101.13;103252;1261;97817;-69
2023/08/06 10:38:18;;;;;;;7.90;6.10;;;;;;;30.87;43.47;98095.59;102986;1261;102667;-68
2023/08/06 10:40:51;;;;;;;8.00;6.30;;;;;;;30.57;44.26;98095.30;102798;1261;108657;-69
2023/08/06 10:43:29;;;;;;;10.00;6.20;;;;;;;30.63;44.76;98090.40;102889;1264;137720;-68
2023/08/06 10:45:59;;;;;;;9.10;6.00;;;;;;;30.79;44.42;98094.73;103033;1265;108702;-69
2023/08/06 10:48:36;;;;;;;15.40;6.20;;;;;;;30.56;44.12;98092.31;102761;1265;137818;-69
2023/08/06 10:51:02;;;;;;;;;;;;;;;30.22;44.59;98093.70;103321;1261;110784;-69
2023/08/06 10:53:29;;;;;;;10.20;6.60;;;;;;;29.89;45.14;98093.73;102861;1260;108414;-70
2023/08/06 10:56:00;;;;;;;7.70;5.70;;;;;;;29.60;45.81;98095.88;102761;1265;137840;-70
2023/08/06 10:58:31;;;;;;;9.10;6.00;;;;;;;29.42;46.01;98096.66;102862;1261;108018;-67
2023/08/06 11:00:59;;;;;;;9.60;6.20;;;;;;;29.35;46.50;98083.83;102773;1264;137959;-70
2023/08/06 11:03:27;;;;;;;13.30;6.10;;;;;;;29.38;46.78;98081.02;103014;1261;112350;-68
2023/08/06 11:05:54;;;;;;;9.70;6.10;;;;;;;29.40;47.23;98067.49;102817;1261;138030;-68
2023/08/06 11:08:28;;;;;;;10.00;5.70;;;;;;;29.43;47.26;98075.98;102975;1264;97693;-69
2023/08/06 11:10:56;;;;;;;8.70;6.00;;;;;;;29.38;47.43;98070.33;103138;1261;107975;-69
2023/08/06 11:13:31;;;;;;;9.30;6.00;;;;;;;29.29;47.83;98064.73;102734;1260;137665;-68
2023/08/06 11:15:58;;;;;;;9.10;5.80;;;;;;;29.22;47.56;98075.95;102916;1263;111660;-69
2023/08/06 11:18:26;;;;;;;6.30;5.70;;;;;;;29.07;47.48;98061.05;102795;1261;139350;-68